< < Back
Terminal Aerodrome Forecast


Current Version              Previous Versions:   1  2  3  4  5  6  7  8  9  

Terminal Aerodrome Forecast

090
FTUS42 KMLB 251100
TAFDAB
TAF
KDAB 251133Z 2512/2612 23005KT P6SM SCT030 SCT250
     FM251800 13008KT P6SM VCTS SCT035CB BKN080
      TEMPO 2520/2523 3SM TSRA BKN035CB OVC080
     FM260200 19005KT P6SM SCT080 BKN250=

Latest METAR

875
SAUS80 KWBC 260900 RRA
MTRDAB
METAR KDAB 260853Z 20003KT 9SM CLR 24/23 A3004 RMK AO2 SLP172 T02390228
56012


USA.gov is the U.S. government's official web portal to all federal, state and local government web resources and services.